Bear Creek Observed Data For Previous 48 Hours

Caption
Day and Hour Reservoir Elevation (behind dam)* Tailwater Elevation (below dam)* Average Hourly Discharge*
8/20/2018 1 AM CDT 576.60 538.27 58
8/20/2018 2 AM CDT 576.61 538.27 58
8/20/2018 3 AM CDT 576.63 538.27 58
8/20/2018 4 AM CDT 576.65 538.27 58
8/20/2018 5 AM CDT 576.66 538.27 58
8/20/2018 6 AM CDT 576.68 538.27 58
8/20/2018 7 AM CDT 576.69 538.27 58
8/20/2018 8 AM CDT 576.70 538.27 58
8/20/2018 9 AM CDT 576.71 538.27 58
8/20/2018 10 AM CDT 576.72 538.27 58
8/20/2018 11 AM CDT 576.72 538.26 57
8/20/2018 12 PM CDT 576.73 538.25 57
8/20/2018 1 PM CDT 576.73 538.25 57
8/20/2018 2 PM CDT 576.73 538.27 58
8/20/2018 3 PM CDT 576.73 538.27 58
8/20/2018 4 PM CDT 576.74 538.27 58
8/20/2018 5 PM CDT 576.73 538.27 58
8/20/2018 6 PM CDT 576.73 538.27 58
8/20/2018 7 PM CDT 576.74 538.27 58
8/20/2018 8 PM CDT 576.73 538.27 58
8/20/2018 9 PM CDT 576.74 538.27 58
8/20/2018 10 PM CDT 576.75 538.28 59
8/20/2018 11 PM CDT 576.75 538.30 60
8/21/2018 12 AM CDT 576.82 538.35 63
8/21/2018 1 AM CDT 576.80 538.32 61
8/21/2018 2 AM CDT 576.80 538.33 62
8/21/2018 3 AM CDT 576.81 538.33 62
8/21/2018 4 AM CDT 576.80 538.31 61
8/21/2018 5 AM CDT 576.80 538.30 60
8/21/2018 6 AM CDT 576.80 538.29 59
8/21/2018 7 AM CDT 576.80 538.29 59
8/21/2018 8 AM CDT 576.81 538.28 59
8/21/2018 9 AM CDT 576.80 538.28 59
8/21/2018 10 AM CDT 576.80 538.28 59
8/21/2018 11 AM CDT 576.80 538.26 57
8/21/2018 12 PM CDT 576.80 538.26 57
8/21/2018 1 PM CDT 576.80 538.26 57
8/21/2018 2 PM CDT 576.80 538.29 59
8/21/2018 3 PM CDT 576.80 538.29 59
8/21/2018 4 PM CDT 576.80 538.29 59
8/21/2018 5 PM CDT 576.80 538.28 59
8/21/2018 6 PM CDT 576.80 538.28 59
8/21/2018 7 PM CDT 576.80 538.29 59
8/21/2018 8 PM CDT 576.80 538.30 60
8/21/2018 9 PM CDT 576.79 538.30 60
8/21/2018 10 PM CDT 576.79 538.30 60
8/21/2018 11 PM CDT 576.79 538.30 60
8/22/2018 12 AM CDT 576.79 538.30 60
8/22/2018 1 AM CDT 576.79 538.30 60

Elevations are in feet above sea level. Discharges are in cubic feet per second and are reported at the end of the hour.